Time;durP1;ratioP1;P1;durP2;ratioP2;P2;SDS_P1;SDS_P2;PMS_P1;PMS_P2;Temp;Humidity;BMP_temperature;BMP_pressure;BME280_temperature;BME280_humidity;BME280_pressure;Samples;Min_cycle;Max_cycle;Signal;HPM_P1;HPM_P2
2021/09/06 00:02:00;;;;;;;9.35;4.22;;;;;;;13.81;58.74;101178.00;4863693;28;96664;-80
2021/09/06 00:04:26;;;;;;;7.13;4.03;;;;;;;13.70;58.81;101177.47;4848509;28;96916;-79
2021/09/06 00:06:51;;;;;;;8.30;4.35;;;;;;;13.72;58.50;101186.22;4863872;28;100898;-80
2021/09/06 00:09:16;;;;;;;9.35;4.07;;;;;;;13.74;58.30;101184.41;4864087;28;101282;-79
2021/09/06 00:11:42;;;;;;;5.38;4.05;;;;;;;13.71;57.60;101168.69;4864243;28;96557;-79
2021/09/06 00:14:08;;;;;;;4.85;3.70;;;;;;;13.62;58.13;101176.91;4864657;28;96883;-79
2021/09/06 00:16:34;;;;;;;4.97;3.65;;;;;;;13.55;58.56;101178.84;4863784;28;101961;-79
2021/09/06 00:19:00;;;;;;;6.22;3.97;;;;;;;13.63;58.55;101183.88;4864139;28;100855;-79
2021/09/06 00:21:25;;;;;;;6.45;3.70;;;;;;;13.61;58.80;101181.28;4864082;28;96586;-78
2021/09/06 00:23:51;;;;;;;6.95;3.70;;;;;;;13.57;58.56;101177.03;4848432;28;96836;-80
2021/09/06 00:26:16;;;;;;;8.50;4.40;;;;;;;13.56;58.67;101165.63;4862743;28;101221;-79
2021/09/06 00:28:42;;;;;;;9.55;4.40;;;;;;;13.54;58.96;101178.00;4863527;28;101260;-79
2021/09/06 00:31:08;;;;;;;8.52;4.53;;;;;;;13.63;58.85;101179.47;4848324;28;96732;-79
2021/09/06 00:33:34;;;;;;;9.68;4.70;;;;;;;13.68;58.32;101184.59;4863149;28;96887;-79
2021/09/06 00:35:59;;;;;;;6.13;4.25;;;;;;;13.47;59.25;101168.56;4863776;28;101229;-79
2021/09/06 00:38:25;;;;;;;5.38;4.30;;;;;;;13.46;59.35;101174.75;4879725;28;97538;-79
2021/09/06 00:40:51;;;;;;;9.07;4.38;;;;;;;13.40;59.58;101179.34;4863870;28;96692;-78
2021/09/06 00:43:17;;;;;;;9.63;4.25;;;;;;;13.41;59.73;101171.41;4880143;28;96831;-78
2021/09/06 00:45:47;;;;;;;8.70;4.47;;;;;;;13.31;60.25;101173.47;4879269;28;98094;-82
2021/09/06 00:48:17;;;;;;;6.93;4.50;;;;;;;13.34;59.04;101173.38;4863932;28;101346;-79
2021/09/06 00:50:42;;;;;;;6.03;4.13;;;;;;;13.16;60.20;101179.19;4863626;28;96677;-79
2021/09/06 00:53:09;;;;;;;5.85;3.83;;;;;;;13.23;60.25;101172.81;4848278;28;96919;-79
2021/09/06 00:55:34;;;;;;;6.30;4.05;;;;;;;13.13;60.31;101174.03;4879148;28;102000;-79
2021/09/06 00:58:00;;;;;;;6.97;4.50;;;;;;;13.11;59.93;101162.66;4879569;28;97954;-80
2021/09/06 01:00:26;;;;;;;5.28;3.95;;;;;;;13.09;60.53;101183.81;4863785;28;96607;-78
2021/09/06 01:02:55;;;;;;;5.20;4.07;;;;;;;13.08;60.54;101179.41;4864024;28;96912;-80
2021/09/06 01:05:22;;;;;;;4.40;3.65;;;;;;;13.10;60.51;101182.88;4879010;28;101149;-80
2021/09/06 01:08:19;;;;;;;9.07;4.70;;;;;;;13.04;59.91;101156.72;4894793;28;101272;-80
2021/09/06 01:11:02;;;;;;;7.07;4.85;;;;;;;12.96;60.71;101171.91;4879300;28;96701;-79
2021/09/06 01:13:57;;;;;;;15.35;4.50;;;;;;;12.86;60.93;101167.84;4867739;28;97626;-80
2021/09/06 01:16:24;;;;;;;8.95;4.28;;;;;;;12.79;61.95;101176.81;4862982;28;100885;-79
2021/09/06 01:18:50;;;;;;;6.40;4.35;;;;;;;12.75;61.33;101167.28;4847494;28;101232;-79
2021/09/06 01:21:16;;;;;;;7.47;4.50;;;;;;;12.78;61.18;101162.78;4879298;28;96664;-79
2021/09/06 01:23:59;;;;;;;8.65;4.85;;;;;;;12.76;61.05;101166.38;4865656;28;96692;-79
2021/09/06 01:26:29;;;;;;;6.72;4.63;;;;;;;12.70;61.58;101162.13;4859898;28;100796;-79
2021/09/06 01:28:55;;;;;;;12.13;4.90;;;;;;;12.70;61.56;101162.13;4863329;28;100077;-80
2021/09/06 01:31:25;;;;;;;7.10;4.60;;;;;;;12.80;61.30;101168.88;4848794;28;96593;-80
2021/09/06 01:33:51;;;;;;;8.07;4.40;;;;;;;12.71;61.31;101150.69;4879402;28;97078;-79
2021/09/06 01:36:18;;;;;;;5.90;4.68;;;;;;;12.68;61.47;101149.03;4879094;28;99571;-80
2021/09/06 01:38:44;;;;;;;6.43;4.70;;;;;;;12.73;61.77;101161.19;4862991;28;100879;-79
2021/09/06 01:41:09;;;;;;;5.63;4.07;;;;;;;12.59;61.99;101158.94;4862838;28;96545;-79
2021/09/06 01:43:35;;;;;;;6.43;4.43;;;;;;;12.52;62.32;101160.91;4864196;28;96840;-79
2021/09/06 01:46:01;;;;;;;10.02;5.15;;;;;;;12.59;62.05;101161.59;4850679;28;100600;-79
2021/09/06 01:48:31;;;;;;;5.57;4.22;;;;;;;12.50;61.92;101159.22;4866377;28;101662;-78
2021/09/06 01:50:56;;;;;;;6.10;4.97;;;;;;;12.44;62.47;101155.00;4850992;28;96592;-80
2021/09/06 01:53:22;;;;;;;8.88;4.60;;;;;;;12.41;62.26;101148.03;4850927;28;96978;-80
2021/09/06 01:55:50;;;;;;;7.05;4.35;;;;;;;12.57;62.17;101160.78;4881702;28;101204;-81
2021/09/06 01:58:16;;;;;;;6.45;4.72;;;;;;;12.41;62.33;101155.06;4850620;28;101717;-79
2021/09/06 02:00:42;;;;;;;5.13;4.25;;;;;;;12.34;62.53;101158.81;4866204;28;96612;-80
2021/09/06 02:03:08;;;;;;;5.35;4.13;;;;;;;12.37;62.31;101163.97;4866353;28;97005;-78
2021/09/06 02:05:48;;;;;;;8.13;4.68;;;;;;;12.35;62.72;101164.00;4881051;28;102261;-81
2021/09/06 02:08:19;;;;;;;9.23;5.22;;;;;;;12.28;62.66;101153.72;4851837;28;100482;-79
2021/09/06 02:10:45;;;;;;;7.47;4.72;;;;;;;12.13;63.27;101157.59;4865971;28;96589;-79
2021/09/06 02:13:12;;;;;;;9.45;4.93;;;;;;;12.24;62.57;101168.69;4850791;28;96672;-79
2021/09/06 02:15:40;;;;;;;8.80;5.25;;;;;;;12.22;62.86;101173.16;4881644;28;101614;-79
2021/09/06 02:18:06;;;;;;;6.43;4.57;;;;;;;12.17;63.38;101172.44;4865681;28;101454;-80
2021/09/06 02:20:34;;;;;;;5.32;4.05;;;;;;;12.06;63.09;101156.91;4866287;28;96567;-79
2021/09/06 02:23:03;;;;;;;7.22;4.60;;;;;;;12.11;63.28;101164.69;4866785;28;96901;-80
2021/09/06 02:25:28;;;;;;;7.72;4.57;;;;;;;12.14;63.50;101176.00;4865584;28;101089;-79
2021/09/06 02:27:54;;;;;;;6.70;4.30;;;;;;;12.12;63.59;101171.69;4880879;28;101413;-79
2021/09/06 02:30:21;;;;;;;9.05;4.28;;;;;;;12.18;63.14;101179.41;4865414;28;96845;-79
2021/09/06 02:32:47;;;;;;;7.55;4.43;;;;;;;12.16;63.13;101171.56;4865821;28;96876;-80
2021/09/06 02:35:41;;;;;;;10.57;4.60;;;;;;;12.09;63.25;101153.34;4852409;28;97470;-78
2021/09/06 02:38:07;;;;;;;9.20;4.82;;;;;;;12.11;63.10;101170.81;4881420;28;97409;-79
2021/09/06 02:40:34;;;;;;;6.25;4.47;;;;;;;12.00;63.44;101171.09;4881198;28;96566;-78
2021/09/06 02:43:00;;;;;;;7.28;4.53;;;;;;;12.04;63.16;101177.13;4850074;28;96951;-79
2021/09/06 02:45:25;;;;;;;7.03;4.55;;;;;;;11.97;63.57;101168.53;4865416;28;101688;-78
2021/09/06 02:47:54;;;;;;;8.00;4.57;;;;;;;11.91;63.92;101173.97;4881139;28;101608;-79
2021/09/06 02:50:20;;;;;;;10.05;4.82;;;;;;;11.99;63.82;101169.38;4865335;28;96691;-78
2021/09/06 02:52:48;;;;;;;12.38;4.55;;;;;;;11.90;63.90;101174.88;4865920;28;96998;-80
2021/09/06 02:55:16;;;;;;;7.97;4.97;;;;;;;11.88;64.19;101173.19;4863980;28;101212;-80
2021/09/06 02:57:44;;;;;;;9.73;5.05;;;;;;;11.94;63.58;101175.66;4865380;28;101701;-80
2021/09/06 03:00:11;;;;;;;7.78;5.65;;;;;;;11.80;64.44;101162.81;4897125;28;96739;-79
2021/09/06 03:02:38;;;;;;;9.13;4.88;;;;;;;11.79;64.84;101179.53;4881246;28;96994;-78
2021/09/06 03:05:07;;;;;;;7.13;4.80;;;;;;;11.83;64.45;101154.00;4850166;28;101670;-79
2021/09/06 03:07:34;;;;;;;6.72;4.88;;;;;;;11.94;63.75;101165.13;4865089;28;99544;-78
2021/09/06 03:10:02;;;;;;;6.05;4.50;;;;;;;11.74;64.07;101155.94;4865405;28;96645;-78
2021/09/06 03:12:32;;;;;;;8.85;4.80;;;;;;;11.67;64.69;101166.69;4850754;28;96744;-79
2021/09/06 03:14:57;;;;;;;9.30;5.30;;;;;;;11.56;64.71;101165.16;4865154;28;98601;-78
2021/09/06 03:17:23;;;;;;;6.22;4.95;;;;;;;11.63;64.34;101165.88;4864776;28;101328;-78
2021/09/06 03:19:49;;;;;;;6.95;5.05;;;;;;;11.65;64.83;101173.75;4864503;28;96596;-78
2021/09/06 03:22:16;;;;;;;8.70;5.38;;;;;;;11.56;64.79;101165.16;4881068;28;96918;-77
2021/09/06 03:24:42;;;;;;;9.57;5.15;;;;;;;11.54;64.59;101166.09;4864716;28;100995;-77
2021/09/06 03:27:09;;;;;;;7.90;5.50;;;;;;;11.45;65.28;101168.97;4863813;28;101467;-77
2021/09/06 03:29:37;;;;;;;10.85;5.60;;;;;;;11.57;64.64;101168.66;4880443;28;96580;-77
2021/09/06 03:32:03;;;;;;;8.52;5.18;;;;;;;11.41;65.10;101170.81;4864888;28;96908;-78
2021/09/06 03:34:31;;;;;;;6.55;4.90;;;;;;;11.37;65.61;101170.91;4849700;28;100893;-79
2021/09/06 03:36:57;;;;;;;13.23;5.15;;;;;;;11.36;65.41;101170.06;4849234;28;100747;-78
2021/09/06 03:39:23;;;;;;;9.30;5.35;;;;;;;11.38;65.37;101173.53;4865388;28;96610;-78
2021/09/06 03:41:48;;;;;;;9.40;5.10;;;;;;;11.33;65.40;101163.09;4864782;28;96787;-79
2021/09/06 03:44:18;;;;;;;9.80;5.18;;;;;;;11.36;65.27;101164.78;4864120;28;101404;-78
2021/09/06 03:46:44;;;;;;;9.30;5.32;;;;;;;11.43;65.33;101162.88;4864184;28;101316;-78
2021/09/06 03:49:09;;;;;;;7.75;5.28;;;;;;;11.37;64.89;101163.88;4863724;28;96753;-78
2021/09/06 03:51:37;;;;;;;10.15;5.13;;;;;;;11.21;65.58;101167.78;4864767;28;96851;-78
2021/09/06 03:54:03;;;;;;;9.50;5.72;;;;;;;11.21;65.61;101167.78;4849071;28;100789;-79
2021/09/06 03:56:29;;;;;;;12.73;5.60;;;;;;;11.05;65.57;101157.63;4864200;28;101112;-79
2021/09/06 03:58:55;;;;;;;7.38;5.55;;;;;;;11.06;65.87;101162.00;4848830;28;96547;-80
2021/09/06 04:01:20;;;;;;;9.35;5.97;;;;;;;11.17;66.04;101168.75;4880823;28;96732;-79
2021/09/06 04:03:47;;;;;;;10.13;5.32;;;;;;;11.03;65.99;101148.91;4848863;28;101911;-80
2021/09/06 04:06:13;;;;;;;8.25;5.55;;;;;;;11.08;66.09;101157.56;4879273;28;100824;-79
2021/09/06 04:08:40;;;;;;;8.48;5.47;;;;;;;11.13;65.77;101170.59;4863783;28;96593;-79
2021/09/06 04:11:06;;;;;;;8.95;5.82;;;;;;;11.09;65.84;101167.16;4848701;28;96851;-79
2021/09/06 04:13:34;;;;;;;15.50;5.85;;;;;;;10.92;66.39;101177.19;4864160;28;101680;-77
2021/09/06 04:16:01;;;;;;;8.40;5.93;;;;;;;10.98;66.26;101171.78;4864534;28;97497;-79
2021/09/06 04:18:30;;;;;;;7.53;5.70;;;;;;;10.87;66.56;101174.66;4864383;28;96653;-78
2021/09/06 04:20:58;;;;;;;9.13;5.93;;;;;;;10.79;66.79;101159.94;4864660;28;97011;-79
2021/09/06 04:23:23;;;;;;;8.65;5.85;;;;;;;10.87;66.52;101173.78;4847881;28;101142;-78
2021/09/06 04:25:51;;;;;;;10.02;6.07;;;;;;;10.88;66.98;101176.41;4863603;28;100476;-79
2021/09/06 04:28:17;;;;;;;12.93;6.45;;;;;;;10.94;66.54;101177.13;4895271;28;96646;-79
2021/09/06 04:30:43;;;;;;;9.05;6.18;;;;;;;10.87;66.04;101179.03;4848267;28;97012;-78
2021/09/06 04:33:19;;;;;;;9.85;6.07;;;;;;;10.95;66.45;101179.75;4864387;28;101942;-78
2021/09/06 04:35:45;;;;;;;7.95;5.95;;;;;;;10.96;66.57;101184.09;4863401;28;101069;-79
2021/09/06 04:38:11;;;;;;;9.70;6.43;;;;;;;11.07;66.04;101194.38;4879732;28;96617;-79
2021/09/06 04:40:37;;;;;;;11.15;6.03;;;;;;;11.05;66.16;101172.50;4880086;28;96847;-78
2021/09/06 04:43:04;;;;;;;7.13;5.75;;;;;;;11.08;66.25;101189.09;4863733;28;102478;-80
2021/09/06 04:45:30;;;;;;;11.00;6.07;;;;;;;11.01;66.12;101184.00;4863642;28;101009;-79
2021/09/06 04:47:55;;;;;;;10.85;5.90;;;;;;;11.15;66.00;101176.69;4878999;28;97228;-79
2021/09/06 04:50:39;;;;;;;12.02;6.70;;;;;;;11.07;66.62;101199.63;4879753;28;96820;-79
2021/09/06 04:53:05;;;;;;;11.10;5.88;;;;;;;11.02;66.47;101204.97;4879098;28;100531;-80
2021/09/06 04:55:32;;;;;;;8.82;5.75;;;;;;;11.19;65.83;101199.34;4863514;28;101691;-79
2021/09/06 04:57:57;;;;;;;9.25;6.75;;;;;;;11.25;66.00;101196.56;4894600;28;96553;-80
2021/09/06 05:00:23;;;;;;;11.32;5.97;;;;;;;11.37;65.57;101187.53;4863667;28;96888;-79
2021/09/06 05:02:52;;;;;;;10.85;6.00;;;;;;;12.06;63.96;101208.69;4863591;28;101086;-76
2021/09/06 05:05:18;;;;;;;9.65;5.38;;;;;;;12.37;63.24;101198.22;4863325;28;101640;-81
2021/09/06 05:07:43;;;;;;;10.23;6.10;;;;;;;12.64;62.46;101207.09;4879151;28;96639;-80
2021/09/06 05:10:09;;;;;;;13.43;5.70;;;;;;;12.76;61.53;101206.75;4879421;28;96782;-80
2021/09/06 05:12:35;;;;;;;12.30;5.97;;;;;;;12.74;61.18;101205.06;4878898;28;101104;-80
2021/09/06 05:15:01;;;;;;;14.63;6.55;;;;;;;12.74;60.58;101203.31;4847881;28;101766;-80
2021/09/06 05:17:27;;;;;;;13.15;6.53;;;;;;;12.96;61.03;101221.09;4863629;28;96609;-79
2021/09/06 05:19:53;;;;;;;10.40;6.15;;;;;;;12.97;61.11;101213.13;4866230;28;96976;-79
2021/09/06 05:22:19;;;;;;;11.45;6.15;;;;;;;12.99;60.12;101213.09;4866120;28;100954;-84
2021/09/06 05:24:45;;;;;;;15.52;6.55;;;;;;;13.14;60.51;101218.78;4850864;28;101276;-83
2021/09/06 05:27:10;;;;;;;12.15;5.93;;;;;;;13.26;59.92;101225.47;4866428;28;96978;-87
2021/09/06 05:29:37;;;;;;;11.73;5.53;;;;;;;13.34;59.83;101227.88;4882104;28;96857;-83
2021/09/06 05:32:03;;;;;;;12.75;6.15;;;;;;;13.35;59.77;101217.31;4881419;28;101678;-84
2021/09/06 05:34:29;;;;;;;10.25;6.22;;;;;;;13.51;59.73;101217.66;4881815;28;100966;-78
2021/09/06 05:36:55;;;;;;;13.57;5.63;;;;;;;13.51;59.30;101212.38;4866309;28;96612;-80
2021/09/06 05:39:20;;;;;;;14.05;6.05;;;;;;;13.76;58.70;101219.53;4866680;28;96856;-79
2021/09/06 05:42:00;;;;;;;19.50;7.47;;;;;;;13.80;58.47;101200.88;4897538;28;102530;-82
2021/09/06 05:44:26;;;;;;;14.80;6.47;;;;;;;13.87;58.80;101212.09;4850614;28;101259;-80
2021/09/06 05:46:52;;;;;;;11.57;6.55;;;;;;;13.99;58.05;101213.44;4881581;28;96601;-81
2021/09/06 05:49:20;;;;;;;16.02;6.90;;;;;;;14.21;57.47;101211.78;4850305;28;96956;-82
2021/09/06 05:51:48;;;;;;;16.52;7.57;;;;;;;14.36;57.01;101206.91;4850686;28;101325;-81
2021/09/06 05:54:18;;;;;;;15.50;7.13;;;;;;;14.39;56.35;101201.50;4882713;28;98548;-80
2021/09/06 05:56:43;;;;;;;11.98;7.35;;;;;;;14.44;56.99;101207.50;4881608;28;96578;-81
2021/09/06 05:59:09;;;;;;;13.07;7.57;;;;;;;14.64;56.50;101220.00;4881977;28;96902;-80
2021/09/06 06:01:36;;;;;;;13.35;7.40;;;;;;;14.84;55.75;101221.91;4849933;28;101903;-80
2021/09/06 06:04:02;;;;;;;17.48;7.50;;;;;;;14.70;55.97;101215.34;4865692;28;101243;-80
2021/09/06 06:06:35;;;;;;;18.15;6.80;;;;;;;14.90;55.22;101213.75;4851400;28;96726;-81
2021/09/06 06:09:02;;;;;;;15.90;6.60;;;;;;;15.36;54.68;101207.53;4865576;28;96929;-81
2021/09/06 06:11:28;;;;;;;12.20;6.38;;;;;;;15.78;53.44;101197.94;4864852;28;100160;-80
2021/09/06 06:13:54;;;;;;;15.93;7.40;;;;;;;16.35;52.79;101212.28;4865315;28;101079;-81
2021/09/06 06:16:20;;;;;;;9.65;6.13;;;;;;;17.19;50.35;101204.91;4865659;28;97125;-80
2021/09/06 06:18:47;;;;;;;10.70;6.05;;;;;;;18.05;48.48;101212.19;4865500;28;97036;-81
2021/09/06 06:21:16;;;;;;;10.38;5.72;;;;;;;19.33;45.48;101221.34;4850348;28;100888;-81
2021/09/06 06:24:04;;;;;;;10.63;5.63;;;;;;;20.51;42.66;101217.94;4870341;28;99092;-80
2021/09/06 06:26:37;;;;;;;10.82;6.07;;;;;;;21.99;40.25;101214.69;4866160;28;96797;-81
2021/09/06 06:29:06;;;;;;;10.35;6.25;;;;;;;23.54;37.85;101210.91;4866130;28;96977;-81
2021/09/06 06:31:32;;;;;;;10.48;5.97;;;;;;;24.71;36.10;101205.50;4880713;28;97922;-81
2021/09/06 06:33:58;;;;;;;11.68;6.15;;;;;;;25.24;35.21;101203.88;4849073;28;102027;-80
2021/09/06 06:36:24;;;;;;;10.07;5.95;;;;;;;25.76;33.42;101214.81;4864711;28;96536;-81
2021/09/06 06:38:52;;;;;;;12.90;5.93;;;;;;;25.66;33.17;101219.28;4864975;28;96985;-80
2021/09/06 06:41:18;;;;;;;11.52;5.82;;;;;;;25.85;33.57;101205.16;4849912;28;101099;-80
2021/09/06 06:43:49;;;;;;;;;;;;;;;27.15;31.47;101215.38;4866081;28;101462;-80
2021/09/06 06:46:17;;;;;;;15.00;6.18;;;;;;;27.18;31.56;101212.41;4849585;28;96699;-80
2021/09/06 06:48:44;;;;;;;11.25;6.75;;;;;;;27.76;31.05;101214.31;4864845;28;97039;-81
2021/09/06 06:51:10;;;;;;;9.43;5.63;;;;;;;28.47;30.02;101213.94;4848592;28;101661;-79
2021/09/06 06:53:41;;;;;;;8.13;5.95;;;;;;;28.37;29.69;101213.97;4865307;28;101507;-85
2021/09/06 06:56:07;;;;;;;9.60;6.03;;;;;;;28.17;29.83;101209.59;4849203;28;96639;-82
2021/09/06 06:58:33;;;;;;;7.28;6.00;;;;;;;28.27;29.94;101209.56;4865364;28;96981;-82
2021/09/06 07:01:01;;;;;;;8.02;5.70;;;;;;;29.45;28.54;101204.34;4864164;28;102129;-84
2021/09/06 07:03:26;;;;;;;8.73;5.70;;;;;;;29.31;29.08;101205.72;4849233;28;101777;-80
2021/09/06 07:05:52;;;;;;;11.40;6.20;;;;;;;29.74;28.48;101208.72;4849870;28;96570;-85
2021/09/06 07:08:20;;;;;;;9.80;6.13;;;;;;;30.15;27.89;101207.19;4881660;28;96642;-82
2021/09/06 07:10:46;;;;;;;9.23;5.88;;;;;;;30.97;26.75;101209.53;4864688;28;101685;-79
2021/09/06 07:13:12;;;;;;;9.02;5.90;;;;;;;31.74;25.80;101216.50;4848723;28;101824;-80
2021/09/06 07:15:38;;;;;;;6.72;6.00;;;;;;;32.07;25.16;101210.25;4865109;28;96614;-82
2021/09/06 07:18:07;;;;;;;8.68;6.05;;;;;;;32.20;25.05;101206.00;4896562;28;97042;-83
2021/09/06 07:20:34;;;;;;;14.57;6.47;;;;;;;32.28;24.83;101202.41;4864770;28;101553;-79
2021/09/06 07:23:00;;;;;;;10.63;5.38;;;;;;;32.64;24.58;101200.13;4879910;28;101314;-80
2021/09/06 07:25:25;;;;;;;9.30;5.40;;;;;;;32.98;24.66;101206.25;4864180;28;96586;-81
2021/09/06 07:27:51;;;;;;;9.15;5.90;;;;;;;33.25;24.31;101202.22;4880505;28;96970;-80
2021/09/06 07:30:17;;;;;;;8.70;5.40;;;;;;;33.96;22.83;101197.47;4848968;28;101564;-85
2021/09/06 07:32:44;;;;;;;11.20;6.28;;;;;;;33.80;23.55;101204.75;4880286;28;96824;-86
2021/09/06 07:35:11;;;;;;;6.75;5.60;;;;;;;34.52;22.54;101197.06;4865045;28;96597;-79
2021/09/06 07:37:38;;;;;;;9.18;5.63;;;;;;;35.05;22.11;101204.09;4879941;28;96922;-84
2021/09/06 07:40:05;;;;;;;8.88;5.50;;;;;;;34.87;22.31;101206.38;4863495;28;101179;-83
2021/09/06 07:42:33;;;;;;;9.85;5.55;;;;;;;35.01;22.19;101201.94;4879740;28;101820;-79
2021/09/06 07:44:59;;;;;;;7.57;5.18;;;;;;;35.04;21.64;101204.28;4863921;28;96754;-79
2021/09/06 07:47:25;;;;;;;6.20;5.53;;;;;;;34.89;22.04;101202.44;4863960;28;97026;-82
2021/09/06 07:49:51;;;;;;;5.10;4.60;;;;;;;34.64;22.44;101201.03;4863313;28;101682;-80
2021/09/06 07:52:17;;;;;;;8.20;5.10;;;;;;;35.03;22.01;101208.91;4879614;28;100940;-81
2021/09/06 07:54:43;;;;;;;4.80;4.32;;;;;;;34.73;21.52;101213.53;4863808;28;96682;-82
2021/09/06 07:57:08;;;;;;;5.15;4.20;;;;;;;34.21;21.70;101200.81;4880429;28;96922;-81
2021/09/06 07:59:34;;;;;;;6.63;4.15;;;;;;;34.16;22.00;101219.63;4863441;28;101611;-79
2021/09/06 08:02:01;;;;;;;5.50;4.90;;;;;;;33.90;22.05;101201.78;4847887;28;101371;-80
2021/09/06 08:04:26;;;;;;;6.28;3.95;;;;;;;33.76;22.14;101210.75;4864045;28;96642;-80
2021/09/06 08:06:54;;;;;;;7.03;4.63;;;;;;;33.97;21.90;101196.44;4864732;28;96872;-84
2021/09/06 08:09:20;;;;;;;5.45;4.53;;;;;;;33.85;22.26;101196.03;4848445;28;101959;-83
2021/09/06 08:11:48;;;;;;;5.05;4.55;;;;;;;33.40;22.64;101208.59;4863477;28;101564;-81
2021/09/06 08:14:17;;;;;;;7.10;4.40;;;;;;;33.59;22.63;101199.13;4864349;28;96645;-86
2021/09/06 08:16:44;;;;;;;7.70;4.60;;;;;;;33.86;22.33;101205.03;4864057;28;96875;-84
2021/09/06 08:19:10;;;;;;;5.85;4.55;;;;;;;34.81;21.49;101198.97;4879425;28;102275;-82
2021/09/06 08:21:36;;;;;;;4.78;4.15;;;;;;;34.25;21.35;101200.25;4879403;28;101373;-85
2021/09/06 08:24:01;;;;;;;6.47;4.25;;;;;;;34.37;21.11;101200.66;4879175;28;96731;-81
2021/09/06 08:26:28;;;;;;;5.65;4.15;;;;;;;34.22;21.78;101206.09;4847545;28;96925;-81
2021/09/06 08:28:53;;;;;;;7.10;4.07;;;;;;;34.24;21.08;101200.47;4879426;28;101611;-84
2021/09/06 08:31:20;;;;;;;4.80;4.03;;;;;;;34.48;20.59;101210.25;4864111;28;101389;-86
2021/09/06 08:33:47;;;;;;;4.00;3.60;;;;;;;33.69;21.02;101221.53;4895960;28;96627;-80
2021/09/06 08:36:12;;;;;;;5.78;3.95;;;;;;;33.68;21.16;101227.97;4880176;28;96951;-81
2021/09/06 08:38:41;;;;;;;4.38;3.05;;;;;;;33.56;20.41;101211.22;4863675;28;101395;-84
2021/09/06 08:41:09;;;;;;;6.55;3.85;;;;;;;32.88;20.84;101225.53;4879554;28;101319;-82
2021/09/06 08:43:35;;;;;;;6.47;3.40;;;;;;;31.91;21.57;101228.25;4863928;28;96575;-82
2021/09/06 08:46:06;;;;;;;4.57;3.80;;;;;;;32.02;21.82;101213.47;4864907;28;96854;-87
2021/09/06 08:48:32;;;;;;;4.40;4.00;;;;;;;31.94;21.85;101219.78;4879541;28;101779;-85
2021/09/06 08:50:58;;;;;;;5.72;4.00;;;;;;;31.09;22.26;101229.91;4879786;28;100071;-89
2021/09/06 08:53:24;;;;;;;4.68;3.67;;;;;;;30.77;22.16;101226.00;4880752;28;96557;-84
2021/09/06 08:55:52;;;;;;;7.25;3.80;;;;;;;30.64;22.42;101237.31;4867747;28;96950;-81
2021/09/06 08:58:18;;;;;;;11.98;3.72;;;;;;;30.94;21.89;101226.13;4867078;28;101046;-80
2021/09/06 09:00:46;;;;;;;4.18;3.20;;;;;;;31.18;21.80;101223.47;4866257;28;101449;-79
2021/09/06 09:03:41;;;;;;;6.30;4.00;;;;;;;31.61;21.47;101227.00;4860920;28;96980;-81
2021/09/06 09:06:36;;;;;;;5.03;4.32;;;;;;;30.88;22.27;101224.91;4871601;28;96837;-81
2021/09/06 09:09:37;;;;;;;5.70;4.20;;;;;;;29.19;24.21;101225.03;4862962;28;97953;-80
2021/09/06 09:12:28;;;;;;;3.97;3.58;;;;;;;30.23;23.49;101220.81;4869661;28;101611;-81
2021/09/06 09:15:26;;;;;;;5.38;3.75;;;;;;;29.99;23.36;101217.88;4875042;28;96945;-80
2021/09/06 09:18:22;;;;;;;4.93;4.15;;;;;;;29.98;23.83;101221.59;4882739;28;96853;-82
2021/09/06 09:21:04;;;;;;;4.85;4.07;;;;;;;29.62;23.25;101212.66;4854527;28;101768;-85
2021/09/06 09:23:47;;;;;;;5.82;4.50;;;;;;;30.49;22.54;101216.41;4868881;28;101751;-78
2021/09/06 09:26:22;;;;;;;5.03;4.20;;;;;;;30.36;22.61;101214.97;4882275;28;96675;-82
2021/09/06 09:29:21;;;;;;;5.32;4.38;;;;;;;29.67;23.04;101218.44;4872182;28;96781;-82
2021/09/06 09:32:07;;;;;;;5.40;4.40;;;;;;;29.24;23.90;101206.50;4884222;28;101632;-84
2021/09/06 09:34:47;;;;;;;5.32;4.18;;;;;;;29.22;24.17;101227.44;4884094;28;101816;-80
2021/09/06 09:37:34;;;;;;;5.22;4.35;;;;;;;29.97;23.98;101207.22;4884916;28;96669;-83
2021/09/06 09:40:07;;;;;;;7.03;3.85;;;;;;;30.39;23.71;101206.50;4882400;28;96939;-83
2021/09/06 09:42:33;;;;;;;4.05;3.58;;;;;;;30.89;23.20;101207.63;4866569;28;101519;-83
2021/09/06 09:44:59;;;;;;;5.43;4.55;;;;;;;30.81;23.19;101202.22;4882071;28;96635;-83
2021/09/06 09:47:53;;;;;;;6.90;4.38;;;;;;;29.53;23.51;101203.59;4882589;28;96789;-83
2021/09/06 09:50:23;;;;;;;4.82;4.10;;;;;;;29.81;23.92;101201.66;4866686;28;96797;-80
2021/09/06 09:52:51;;;;;;;7.60;4.35;;;;;;;29.64;24.16;101189.88;4881855;28;98186;-83
2021/09/06 09:55:19;;;;;;;4.50;4.10;;;;;;;29.68;24.00;101199.38;4866455;28;98389;-82
2021/09/06 09:57:45;;;;;;;4.82;4.32;;;;;;;29.90;23.25;101195.31;4881647;28;96522;-80
2021/09/06 10:00:14;;;;;;;4.70;3.90;;;;;;;29.10;23.83;101199.78;4866417;28;96963;-81
2021/09/06 10:02:48;;;;;;;4.45;4.05;;;;;;;29.18;23.95;101204.44;4882458;28;98208;-75
2021/09/06 10:05:14;;;;;;;4.45;3.88;;;;;;;29.29;24.68;101199.66;4881739;28;98466;-76
2021/09/06 10:07:44;;;;;;;5.10;4.25;;;;;;;28.59;24.64;101191.16;4850391;28;96713;-76
2021/09/06 10:10:19;;;;;;;7.47;3.40;;;;;;;28.20;25.21;101191.25;4865829;28;96780;-74
2021/09/06 10:12:48;;;;;;;6.05;3.10;;;;;;;27.74;25.31;101190.16;4882593;28;98575;-75
2021/09/06 10:15:15;;;;;;;5.05;3.83;;;;;;;27.64;26.32;101167.75;4865850;28;101168;-76
2021/09/06 10:17:47;;;;;;;6.82;3.65;;;;;;;27.47;26.31;101179.25;4881923;28;96610;-76
2021/09/06 10:20:13;;;;;;;5.65;4.30;;;;;;;25.69;27.64;101179.53;4882245;28;96773;-76
2021/09/06 10:22:44;;;;;;;5.00;3.72;;;;;;;24.40;28.89;101163.16;4865091;28;101611;-76
2021/09/06 10:25:34;;;;;;;6.45;4.00;;;;;;;24.87;29.31;101187.19;4882143;28;97657;-76
2021/09/06 10:28:04;;;;;;;7.57;3.67;;;;;;;24.45;29.10;101180.72;4896947;28;96634;-77
2021/09/06 10:30:40;;;;;;;4.65;2.42;;;;;;;23.53;29.59;101185.91;4850002;28;96787;-79
2021/09/06 10:33:21;;;;;;;3.65;3.00;;;;;;;23.45;30.04;101175.78;4865828;28;98012;-78
2021/09/06 10:35:50;;;;;;;5.07;4.53;;;;;;;23.55;30.39;101173.25;4882088;28;97916;-81
2021/09/06 10:38:16;;;;;;;4.45;3.95;;;;;;;23.12;31.23;101149.66;4865490;28;96609;-77
2021/09/06 10:40:43;;;;;;;3.92;3.53;;;;;;;23.33;32.34;101174.03;4881633;28;96838;-78
2021/09/06 10:43:21;;;;;;;5.45;3.90;;;;;;;23.30;31.43;101179.59;4865198;28;101721;-78
2021/09/06 10:45:50;;;;;;;5.50;3.53;;;;;;;23.18;31.49;101165.25;4881381;28;101171;-81
2021/09/06 10:48:22;;;;;;;5.15;3.05;;;;;;;23.32;31.51;101160.72;4881423;28;96726;-78
2021/09/06 10:50:49;;;;;;;4.32;3.10;;;;;;;22.91;30.70;101160.09;4898346;28;96753;-80
2021/09/06 10:53:17;;;;;;;3.40;2.55;;;;;;;22.91;30.99;101159.25;4865089;28;101438;-78
2021/09/06 10:55:52;;;;;;;9.23;3.03;;;;;;;22.92;31.25;101158.25;4880994;28;97362;-78
2021/09/06 10:58:21;;;;;;;6.15;3.30;;;;;;;22.97;32.46;101158.81;4865431;28;96605;-76
2021/09/06 11:00:59;;;;;;;4.63;2.92;;;;;;;22.84;32.39;101164.19;4851285;28;96808;-76
2021/09/06 11:03:30;;;;;;;4.60;3.20;;;;;;;22.33;32.21;101166.91;4881211;28;98146;-76
2021/09/06 11:05:58;;;;;;;7.43;3.10;;;;;;;21.85;32.56;101153.28;4866160;28;97975;-78
2021/09/06 11:08:25;;;;;;;5.18;3.45;;;;;;;21.98;32.93;101161.31;4880826;28;96529;-76
2021/09/06 11:10:55;;;;;;;3.40;2.55;;;;;;;22.26;32.84;101163.84;4880696;28;96833;-81
2021/09/06 11:13:21;;;;;;;3.90;2.92;;;;;;;22.34;32.70;101166.84;4864326;28;98603;-78
2021/09/06 11:15:48;;;;;;;10.75;3.35;;;;;;;21.88;33.58;101169.13;4879887;28;101220;-78
2021/09/06 11:18:14;;;;;;;4.82;3.63;;;;;;;21.65;32.37;101151.97;4864765;28;96528;-78
2021/09/06 11:20:46;;;;;;;4.47;2.78;;;;;;;21.83;32.82;101137.34;4881375;28;96662;-78
2021/09/06 11:23:12;;;;;;;4.43;3.20;;;;;;;21.95;34.37;101150.84;4864386;28;101581;-78
2021/09/06 11:25:41;;;;;;;5.97;3.50;;;;;;;22.13;33.97;101145.06;4864373;28;101288;-78
2021/09/06 11:28:10;;;;;;;4.45;3.13;;;;;;;22.18;34.23;101150.13;4849223;28;96609;-78